createdAt,value
2018-10-18T00:03:57.668Z,75.11
2018-10-18T00:08:04.689Z,74.28
2018-10-18T00:12:11.770Z,74.82
2018-10-18T00:16:18.755Z,74.58
2018-10-18T00:20:25.780Z,75.02
2018-10-18T00:24:32.831Z,74.94
2018-10-18T00:28:39.856Z,75.83
2018-10-18T00:32:46.903Z,76.70
2018-10-18T00:36:53.902Z,76.59
2018-10-18T00:41:00.899Z,76.41
2018-10-18T00:45:09.930Z,76.67
2018-10-18T00:49:16.987Z,76.77
2018-10-18T00:53:23.986Z,77.72
2018-10-18T00:57:31.009Z,77.72
2018-10-18T01:01:38.255Z,77.95
2018-10-18T01:05:45.279Z,77.44
2018-10-18T01:09:52.366Z,77.64
2018-10-18T01:13:59.402Z,77.58
2018-10-18T01:18:06.662Z,77.53
2018-10-18T01:22:13.547Z,78.40
2018-10-18T01:26:20.537Z,77.88
2018-10-18T01:30:29.974Z,78.26
2018-10-18T01:34:37.017Z,78.80
2018-10-18T01:38:44.042Z,79.38
2018-10-18T01:42:51.078Z,79.10
2018-10-18T01:46:58.158Z,79.02
2018-10-18T01:51:05.210Z,79.88
2018-10-18T01:55:12.254Z,79.93
2018-10-18T01:59:19.357Z,79.93
2018-10-18T02:03:26.420Z,79.38
2018-10-18T02:07:33.421Z,79.50
2018-10-18T02:11:40.814Z,79.67
2018-10-18T02:15:47.845Z,79.74
2018-10-18T02:19:54.943Z,79.65
2018-10-18T02:24:02.062Z,79.47
2018-10-18T02:28:08.987Z,79.49
2018-10-18T02:32:16.045Z,79.81
2018-10-18T02:36:23.108Z,80.04
2018-10-18T02:40:30.124Z,80.14
2018-10-18T02:44:37.151Z,80.28
2018-10-18T02:48:44.224Z,80.52
2018-10-18T02:52:51.251Z,80.52
2018-10-18T02:56:58.250Z,80.36
2018-10-18T03:01:05.339Z,80.73
2018-10-18T03:05:12.379Z,81.23
2018-10-18T03:09:19.416Z,81.38
2018-10-18T03:13:26.485Z,81.12
2018-10-18T03:17:33.488Z,81.31
2018-10-18T03:21:40.571Z,81.32
2018-10-18T03:25:47.599Z,81.59
2018-10-18T03:29:54.635Z,81.54
2018-10-18T03:34:01.650Z,81.54
2018-10-18T03:38:08.669Z,81.29
2018-10-18T03:42:15.758Z,81.29
2018-10-18T03:46:22.678Z,81.42
2018-10-18T03:50:29.681Z,81.22
2018-10-18T03:54:36.708Z,81.32
2018-10-18T03:58:43.735Z,80.91
2018-10-18T04:02:50.770Z,82.56
2018-10-18T04:06:57.764Z,82.56
2018-10-18T04:11:04.801Z,82.32
2018-10-18T04:15:11.833Z,82.58
2018-10-18T04:19:18.835Z,82.24
2018-10-18T04:23:35.844Z,82.71
2018-10-18T04:27:42.861Z,82.19
2018-10-18T04:31:49.899Z,82.93
2018-10-18T04:35:56.944Z,82.22
2018-10-18T04:40:03.948Z,82.36
2018-10-18T04:44:11.027Z,82.13
2018-10-18T04:48:18.220Z,81.10
2018-10-18T04:52:25.102Z,81.10
2018-10-18T04:56:32.129Z,81.14
2018-10-18T05:00:39.176Z,80.93
2018-10-18T05:05:44.003Z,80.68
2018-10-18T05:09:51.022Z,80.49
2018-10-18T05:13:58.033Z,80.36
2018-10-18T05:18:05.122Z,80.36
2018-10-18T05:22:12.220Z,80.54
2018-10-18T05:26:19.391Z,80.27
2018-10-18T05:30:26.443Z,80.25
2018-10-18T05:34:33.448Z,79.90
2018-10-18T05:38:40.468Z,80.09
2018-10-18T05:42:47.472Z,80.32
2018-10-18T05:46:54.581Z,79.53
2018-10-18T05:51:01.581Z,79.13
2018-10-18T05:55:10.696Z,78.43
2018-10-18T05:59:22.637Z,78.60
2018-10-18T06:03:32.276Z,78.49
2018-10-18T06:07:39.431Z,78.16
2018-10-18T06:11:46.630Z,78.00
2018-10-18T06:15:53.804Z,77.74
2018-10-18T06:20:00.863Z,77.76
2018-10-18T06:24:07.883Z,77.63
2018-10-18T06:28:14.919Z,77.66
2018-10-18T06:32:21.961Z,77.57
2018-10-18T06:36:28.981Z,77.84
2018-10-18T06:40:37.064Z,77.24
2018-10-18T06:44:44.131Z,77.33
2018-10-18T06:48:51.311Z,76.89
2018-10-18T06:52:58.328Z,77.00
2018-10-18T06:57:05.901Z,76.74
2018-10-18T07:01:12.984Z,76.08
2018-10-18T07:05:20.214Z,76.74
2018-10-18T07:09:27.315Z,76.92
2018-10-18T07:13:34.475Z,76.95
2018-10-18T07:17:42.410Z,76.57
2018-10-18T07:21:51.462Z,75.84
2018-10-18T07:25:58.590Z,76.17
2018-10-18T07:30:06.592Z,75.74
2018-10-18T07:34:13.741Z,75.75
2018-10-18T07:38:20.920Z,75.58
2018-10-18T07:42:28.549Z,75.16
2018-10-18T07:46:35.823Z,74.61
2018-10-18T07:50:43.101Z,73.50
2018-10-18T07:54:50.442Z,73.03
2018-10-18T07:58:58.009Z,72.06
2018-10-18T08:03:05.541Z,71.57
2018-10-18T08:07:12.639Z,71.32
2018-10-18T08:11:19.659Z,71.20
2018-10-18T08:15:26.699Z,71.58
2018-10-18T08:19:33.699Z,71.64
2018-10-18T08:23:40.721Z,70.77
2018-10-18T08:27:47.858Z,69.48
2018-10-18T08:31:54.947Z,69.76
2018-10-18T08:36:01.953Z,68.29
2018-10-18T08:40:10.217Z,70.22
2018-10-18T08:44:17.318Z,69.98
2018-10-18T08:48:24.315Z,68.92
2018-10-18T08:52:31.303Z,69.99
2018-10-18T08:56:38.294Z,69.37
2018-10-18T09:00:45.416Z,70.12
2018-10-18T09:04:52.665Z,70.62
2018-10-18T09:08:59.851Z,70.36
2018-10-18T09:13:07.180Z,69.56
2018-10-18T09:17:14.184Z,70.33
2018-10-18T09:21:21.436Z,70.00
2018-10-18T09:25:28.646Z,69.55
2018-10-18T09:29:35.732Z,69.19
2018-10-18T09:33:42.805Z,69.27
2018-10-18T09:37:49.808Z,69.13
2018-10-18T09:41:56.854Z,68.73
2018-10-18T09:46:03.920Z,68.26
2018-10-18T09:50:12.404Z,67.77
2018-10-18T09:54:19.832Z,66.77
2018-10-18T09:58:27.011Z,66.70
2018-10-18T10:02:55.874Z,66.79
2018-10-18T10:07:02.967Z,65.94
2018-10-18T10:11:10.037Z,65.52
2018-10-18T10:15:17.310Z,65.09
2018-10-18T10:19:24.855Z,64.93
2018-10-18T10:23:32.010Z,64.47
2018-10-18T10:27:39.291Z,64.38
2018-10-18T10:31:46.542Z,63.30
2018-10-18T10:35:53.590Z,63.09
2018-10-18T10:40:00.805Z,62.85
2018-10-18T10:44:10.256Z,61.94
2018-10-18T10:48:19.570Z,62.20
2018-10-18T10:52:26.629Z,61.78
2018-10-18T10:56:33.937Z,60.87
2018-10-18T11:01:07.255Z,61.01
2018-10-18T11:05:14.427Z,60.53
2018-10-18T11:09:21.605Z,60.24
2018-10-18T11:13:29.977Z,60.31
2018-10-18T11:17:37.016Z,60.17
2018-10-18T11:21:44.148Z,59.56
2018-10-18T11:25:51.299Z,58.60
2018-10-18T11:29:58.371Z,58.77
2018-10-18T11:34:05.569Z,57.97
2018-10-18T11:38:13.369Z,56.82
2018-10-18T11:42:20.652Z,57.30
2018-10-18T11:46:27.648Z,55.75
2018-10-18T11:50:34.598Z,54.61
2018-10-18T11:54:41.832Z,53.57
2018-10-18T11:58:49.061Z,53.42
2018-10-18T12:02:56.142Z,52.73
2018-10-18T12:07:03.173Z,51.42
2018-10-18T12:11:10.279Z,51.10
2018-10-18T12:15:17.253Z,50.60
2018-10-18T12:19:24.283Z,49.70
2018-10-18T12:23:31.361Z,49.84
2018-10-18T12:27:38.504Z,49.26
2018-10-18T12:31:45.738Z,49.50
2018-10-18T12:35:52.900Z,50.02
2018-10-18T12:40:00.006Z,49.76
2018-10-18T12:44:07.152Z,50.08
2018-10-18T12:48:14.275Z,53.43
2018-10-18T12:52:22.654Z,51.31
2018-10-18T12:56:29.969Z,51.23
2018-10-18T13:00:37.250Z,51.43
2018-10-18T13:04:44.735Z,50.94
2018-10-18T13:08:51.930Z,53.25
2018-10-18T13:12:59.147Z,51.81
2018-10-18T13:17:06.733Z,52.11
2018-10-18T13:21:13.990Z,51.78
2018-10-18T13:25:21.246Z,51.90
2018-10-18T13:29:28.471Z,53.36
2018-10-18T13:33:35.651Z,52.25
2018-10-18T13:37:42.796Z,52.91
2018-10-18T13:41:49.829Z,53.67
2018-10-18T13:45:57.023Z,54.01
2018-10-18T13:50:04.361Z,54.87
2018-10-18T13:54:11.688Z,55.00
2018-10-18T13:58:18.864Z,55.07
2018-10-18T14:02:26.154Z,55.52
2018-10-18T14:06:33.323Z,55.81
2018-10-18T14:10:40.614Z,55.65
2018-10-18T14:14:47.886Z,55.99
2018-10-18T14:18:55.050Z,56.10
2018-10-18T14:23:02.299Z,55.94
2018-10-18T14:27:09.455Z,56.53
2018-10-18T14:31:16.635Z,56.06
2018-10-18T14:35:23.904Z,56.71
2018-10-18T14:39:31.194Z,56.90
2018-10-18T14:43:38.690Z,57.03
2018-10-18T14:47:45.753Z,56.58
2018-10-18T14:51:52.778Z,57.38
2018-10-18T14:55:59.821Z,57.39
2018-10-18T15:00:08.422Z,57.71
2018-10-18T15:04:15.604Z,57.73
2018-10-18T15:08:22.656Z,57.87
2018-10-18T15:12:29.699Z,58.03
2018-10-18T15:16:36.837Z,57.88
2018-10-18T15:20:44.891Z,58.50
2018-10-18T15:24:51.934Z,58.57
2018-10-18T15:28:59.064Z,58.77
2018-10-18T15:33:06.114Z,59.19
2018-10-18T15:37:13.184Z,59.15
2018-10-18T15:41:20.445Z,59.79
2018-10-18T15:45:27.532Z,60.01
2018-10-18T15:49:34.579Z,60.48
2018-10-18T15:53:41.848Z,61.15
2018-10-18T15:57:48.778Z,61.53
2018-10-18T16:01:55.845Z,61.65
2018-10-18T16:06:03.075Z,62.08
2018-10-18T16:10:10.996Z,62.86
2018-10-18T16:14:18.101Z,62.72
2018-10-18T16:18:25.114Z,63.09
2018-10-18T16:22:32.172Z,63.37
2018-10-18T16:26:39.296Z,63.58
2018-10-18T16:30:46.183Z,63.59
2018-10-18T16:34:53.284Z,63.83
2018-10-18T16:39:03.111Z,63.79
2018-10-18T16:43:10.315Z,64.24
2018-10-18T16:47:17.414Z,64.40
2018-10-18T16:51:24.527Z,64.96
2018-10-18T16:55:31.593Z,65.38
2018-10-18T16:59:38.606Z,65.75
2018-10-18T17:03:45.662Z,66.23
2018-10-18T17:07:52.795Z,66.26
2018-10-18T17:12:00.208Z,66.43
2018-10-18T17:16:07.522Z,66.42
2018-10-18T17:20:14.536Z,66.68
2018-10-18T17:24:21.604Z,67.02
2018-10-18T17:28:28.676Z,67.35
2018-10-18T17:32:35.878Z,67.50
2018-10-18T17:36:42.953Z,67.85
2018-10-18T17:40:53.046Z,68.07
2018-10-18T17:45:02.952Z,68.16
2018-10-18T17:49:24.970Z,68.31
2018-10-18T17:53:32.108Z,68.26
2018-10-18T17:57:39.565Z,68.75
2018-10-18T18:01:47.141Z,69.07
2018-10-18T18:05:54.207Z,69.29
2018-10-18T18:10:01.310Z,69.71
2018-10-18T18:14:08.624Z,69.98
2018-10-18T18:18:15.921Z,70.33
2018-10-18T18:22:23.187Z,70.33
2018-10-18T18:26:44.761Z,70.62
2018-10-18T18:30:37.610Z,70.61
2018-10-18T18:34:44.716Z,70.66
2018-10-18T18:38:51.905Z,71.17
2018-10-18T18:42:58.929Z,71.12
2018-10-18T18:47:06.053Z,71.49
2018-10-18T18:51:13.205Z,71.64
2018-10-18T18:55:20.215Z,71.93
2018-10-18T18:59:27.254Z,72.19
2018-10-18T19:03:34.300Z,72.55
2018-10-18T19:07:41.397Z,72.50
2018-10-18T19:11:48.581Z,72.53
2018-10-18T19:15:55.785Z,72.75
2018-10-18T19:20:06.258Z,72.63
2018-10-18T19:24:13.751Z,72.63
2018-10-18T19:28:25.968Z,72.99
2018-10-18T19:32:48.677Z,73.18
2018-10-18T19:36:58.403Z,73.04
2018-10-18T19:41:03.787Z,73.34
2018-10-18T19:45:14.503Z,73.41
2018-10-18T19:49:19.354Z,73.58
2018-10-18T19:53:26.776Z,73.98
2018-10-18T19:57:34.253Z,74.15
2018-10-18T20:01:42.085Z,74.03
2018-10-18T20:05:49.540Z,74.13
2018-10-18T20:09:56.753Z,74.08
2018-10-18T20:14:04.061Z,74.33
2018-10-18T20:18:11.990Z,74.26
2018-10-18T20:22:19.526Z,74.27
2018-10-18T20:26:26.927Z,74.01
2018-10-18T20:30:34.056Z,74.06
2018-10-18T20:34:41.403Z,73.89
2018-10-18T20:38:48.610Z,74.08
2018-10-18T20:42:55.679Z,73.95
2018-10-18T20:47:02.812Z,73.59
2018-10-18T20:51:09.938Z,74.14
2018-10-18T20:55:16.957Z,74.21
2018-10-18T20:59:24.044Z,74.33
2018-10-18T21:03:31.046Z,74.27
2018-10-18T21:07:38.105Z,74.22
2018-10-18T21:11:45.181Z,74.34
2018-10-18T21:15:52.673Z,74.64
2018-10-18T21:19:59.805Z,74.65
2018-10-18T21:24:06.753Z,74.50
2018-10-18T21:28:14.019Z,74.79
2018-10-18T21:32:21.131Z,74.84
2018-10-18T21:36:28.220Z,74.93
2018-10-18T21:40:35.367Z,74.71
2018-10-18T21:44:44.614Z,74.88
2018-10-18T21:48:51.680Z,74.82
2018-10-18T21:52:58.842Z,74.86
2018-10-18T21:57:06.457Z,74.97
2018-10-18T22:01:13.436Z,74.98
2018-10-18T22:05:20.577Z,74.99
2018-10-18T22:09:27.621Z,75.33
2018-10-18T22:13:34.816Z,75.33
2018-10-18T22:17:41.874Z,75.22
2018-10-18T22:21:48.896Z,75.31
2018-10-18T22:25:55.956Z,74.75
2018-10-18T22:30:03.075Z,74.49
2018-10-18T22:34:10.209Z,74.60
2018-10-18T22:38:17.236Z,74.73
2018-10-18T22:42:24.294Z,74.70
2018-10-18T22:46:31.323Z,74.90
2018-10-18T22:50:38.326Z,74.82
2018-10-18T22:54:45.321Z,75.19
2018-10-18T22:58:54.678Z,75.08
2018-10-18T23:03:01.860Z,75.36
2018-10-18T23:07:08.924Z,75.27
2018-10-18T23:11:16.040Z,75.46
2018-10-18T23:15:23.031Z,75.47
2018-10-18T23:19:30.136Z,75.72
2018-10-18T23:23:37.190Z,75.75
2018-10-18T23:27:44.205Z,75.73
2018-10-18T23:31:51.196Z,75.73
2018-10-18T23:35:58.230Z,75.50
2018-10-18T23:40:05.352Z,75.50
2018-10-18T23:44:12.395Z,75.58
2018-10-18T23:48:19.551Z,75.58
2018-10-18T23:52:26.483Z,75.38
2018-10-18T23:56:33.511Z,75.57
